sensor_id;sensor_type;location;lat;lon;timestamp;P1;durP1;ratioP1;P2;durP2;ratioP2
4986;SDS011;12674;51.500;7.552;2022-11-20T00:01:04;25.40;;;17.60;;
4986;SDS011;12674;51.500;7.552;2022-11-20T00:03:07;23.50;;;16.43;;
4986;SDS011;12674;51.500;7.552;2022-11-20T00:05:10;28.10;;;17.40;;
4986;SDS011;12674;51.500;7.552;2022-11-20T00:07:13;27.17;;;17.60;;
4986;SDS011;12674;51.500;7.552;2022-11-20T00:09:16;31.00;;;17.60;;
4986;SDS011;12674;51.500;7.552;2022-11-20T00:11:20;27.33;;;17.97;;
4986;SDS011;12674;51.500;7.552;2022-11-20T00:13:24;28.83;;;17.17;;
4986;SDS011;12674;51.500;7.552;2022-11-20T00:15:28;27.70;;;17.30;;
4986;SDS011;12674;51.500;7.552;2022-11-20T00:17:31;27.13;;;17.50;;
4986;SDS011;12674;51.500;7.552;2022-11-20T00:19:34;26.43;;;17.10;;
4986;SDS011;12674;51.500;7.552;2022-11-20T00:21:37;25.53;;;16.47;;
4986;SDS011;12674;51.500;7.552;2022-11-20T00:23:40;25.70;;;17.20;;
4986;SDS011;12674;51.500;7.552;2022-11-20T00:25:43;28.43;;;19.10;;
4986;SDS011;12674;51.500;7.552;2022-11-20T00:27:46;28.67;;;20.07;;
4986;SDS011;12674;51.500;7.552;2022-11-20T00:29:49;24.60;;;17.63;;
4986;SDS011;12674;51.500;7.552;2022-11-20T00:31:53;31.90;;;19.03;;
4986;SDS011;12674;51.500;7.552;2022-11-20T00:33:56;24.53;;;16.43;;
4986;SDS011;12674;51.500;7.552;2022-11-20T00:36:00;27.40;;;17.90;;
4986;SDS011;12674;51.500;7.552;2022-11-20T00:38:03;31.20;;;19.40;;
4986;SDS011;12674;51.500;7.552;2022-11-20T00:40:07;30.17;;;19.60;;
4986;SDS011;12674;51.500;7.552;2022-11-20T00:42:10;28.53;;;19.10;;
4986;SDS011;12674;51.500;7.552;2022-11-20T00:44:13;30.03;;;18.87;;
4986;SDS011;12674;51.500;7.552;2022-11-20T00:46:18;28.13;;;19.40;;
4986;SDS011;12674;51.500;7.552;2022-11-20T00:48:23;24.03;;;16.87;;
4986;SDS011;12674;51.500;7.552;2022-11-20T00:50:26;28.63;;;18.13;;
4986;SDS011;12674;51.500;7.552;2022-11-20T00:52:29;26.33;;;17.13;;
4986;SDS011;12674;51.500;7.552;2022-11-20T00:54:31;24.70;;;16.93;;
4986;SDS011;12674;51.500;7.552;2022-11-20T00:56:34;27.67;;;16.80;;
4986;SDS011;12674;51.500;7.552;2022-11-20T00:58:38;26.73;;;16.33;;
4986;SDS011;12674;51.500;7.552;2022-11-20T01:00:42;25.30;;;17.70;;
4986;SDS011;12674;51.500;7.552;2022-11-20T01:02:45;23.00;;;16.57;;
4986;SDS011;12674;51.500;7.552;2022-11-20T01:04:49;31.10;;;16.70;;
4986;SDS011;12674;51.500;7.552;2022-11-20T01:06:52;27.70;;;16.83;;
4986;SDS011;12674;51.500;7.552;2022-11-20T01:08:56;26.97;;;16.73;;
4986;SDS011;12674;51.500;7.552;2022-11-20T01:11:00;27.40;;;17.03;;
4986;SDS011;12674;51.500;7.552;2022-11-20T01:13:03;25.40;;;15.50;;
4986;SDS011;12674;51.500;7.552;2022-11-20T01:15:26;20.77;;;14.40;;
4986;SDS011;12674;51.500;7.552;2022-11-20T01:17:29;26.70;;;17.93;;
4986;SDS011;12674;51.500;7.552;2022-11-20T01:19:33;23.63;;;16.07;;
4986;SDS011;12674;51.500;7.552;2022-11-20T01:21:38;23.10;;;16.10;;
4986;SDS011;12674;51.500;7.552;2022-11-20T01:23:43;22.77;;;15.80;;
4986;SDS011;12674;51.500;7.552;2022-11-20T01:25:46;21.13;;;15.90;;
4986;SDS011;12674;51.500;7.552;2022-11-20T01:27:49;24.30;;;16.70;;
4986;SDS011;12674;51.500;7.552;2022-11-20T01:29:52;24.87;;;16.23;;
4986;SDS011;12674;51.500;7.552;2022-11-20T01:32:01;24.50;;;15.90;;
4986;SDS011;12674;51.500;7.552;2022-11-20T01:34:05;22.33;;;16.20;;
4986;SDS011;12674;51.500;7.552;2022-11-20T01:36:09;23.93;;;15.40;;
4986;SDS011;12674;51.500;7.552;2022-11-20T01:38:14;22.63;;;16.13;;
4986;SDS011;12674;51.500;7.552;2022-11-20T01:40:17;24.43;;;14.40;;
4986;SDS011;12674;51.500;7.552;2022-11-20T01:42:20;27.90;;;16.53;;
4986;SDS011;12674;51.500;7.552;2022-11-20T01:44:47;24.80;;;17.23;;
4986;SDS011;12674;51.500;7.552;2022-11-20T01:46:55;23.33;;;15.60;;
4986;SDS011;12674;51.500;7.552;2022-11-20T01:49:00;24.17;;;15.70;;
4986;SDS011;12674;51.500;7.552;2022-11-20T01:51:06;24.50;;;17.30;;
4986;SDS011;12674;51.500;7.552;2022-11-20T01:53:15;20.87;;;15.27;;
4986;SDS011;12674;51.500;7.552;2022-11-20T01:55:20;24.87;;;15.53;;
4986;SDS011;12674;51.500;7.552;2022-11-20T01:57:24;24.53;;;15.67;;
4986;SDS011;12674;51.500;7.552;2022-11-20T01:59:28;25.80;;;17.30;;
4986;SDS011;12674;51.500;7.552;2022-11-20T02:01:32;20.90;;;15.30;;
4986;SDS011;12674;51.500;7.552;2022-11-20T02:03:35;26.70;;;17.20;;
4986;SDS011;12674;51.500;7.552;2022-11-20T02:05:38;31.40;;;17.60;;
4986;SDS011;12674;51.500;7.552;2022-11-20T02:07:45;24.00;;;17.03;;
4986;SDS011;12674;51.500;7.552;2022-11-20T02:09:50;25.60;;;16.53;;
4986;SDS011;12674;51.500;7.552;2022-11-20T02:11:59;21.90;;;15.17;;
4986;SDS011;12674;51.500;7.552;2022-11-20T02:14:02;25.10;;;16.80;;
4986;SDS011;12674;51.500;7.552;2022-11-20T02:16:04;23.10;;;15.67;;
4986;SDS011;12674;51.500;7.552;2022-11-20T02:18:11;27.10;;;17.07;;
4986;SDS011;12674;51.500;7.552;2022-11-20T02:20:16;21.30;;;15.20;;
4986;SDS011;12674;51.500;7.552;2022-11-20T02:22:21;29.13;;;16.37;;
4986;SDS011;12674;51.500;7.552;2022-11-20T02:24:28;25.83;;;17.17;;
4986;SDS011;12674;51.500;7.552;2022-11-20T02:26:32;24.73;;;16.57;;
4986;SDS011;12674;51.500;7.552;2022-11-20T02:28:38;23.10;;;15.40;;
4986;SDS011;12674;51.500;7.552;2022-11-20T02:30:41;21.23;;;16.27;;
4986;SDS011;12674;51.500;7.552;2022-11-20T02:32:44;27.73;;;17.40;;
4986;SDS011;12674;51.500;7.552;2022-11-20T02:34:47;25.50;;;16.43;;
4986;SDS011;12674;51.500;7.552;2022-11-20T02:36:50;23.33;;;16.93;;
4986;SDS011;12674;51.500;7.552;2022-11-20T02:38:54;22.10;;;15.13;;
4986;SDS011;12674;51.500;7.552;2022-11-20T02:40:59;23.97;;;15.70;;
4986;SDS011;12674;51.500;7.552;2022-11-20T02:43:01;21.20;;;15.83;;
4986;SDS011;12674;51.500;7.552;2022-11-20T02:45:05;21.43;;;15.67;;
4986;SDS011;12674;51.500;7.552;2022-11-20T02:47:08;21.50;;;15.63;;
4986;SDS011;12674;51.500;7.552;2022-11-20T02:49:11;20.90;;;15.20;;
4986;SDS011;12674;51.500;7.552;2022-11-20T02:51:14;29.00;;;16.37;;
4986;SDS011;12674;51.500;7.552;2022-11-20T02:53:17;23.60;;;17.20;;
4986;SDS011;12674;51.500;7.552;2022-11-20T02:55:21;20.60;;;13.77;;
4986;SDS011;12674;51.500;7.552;2022-11-20T02:57:25;22.27;;;16.20;;
4986;SDS011;12674;51.500;7.552;2022-11-20T02:59:29;23.63;;;15.67;;
4986;SDS011;12674;51.500;7.552;2022-11-20T03:01:32;20.73;;;14.80;;
4986;SDS011;12674;51.500;7.552;2022-11-20T03:03:35;22.53;;;14.70;;
4986;SDS011;12674;51.500;7.552;2022-11-20T03:05:38;20.90;;;15.23;;
4986;SDS011;12674;51.500;7.552;2022-11-20T03:07:40;22.50;;;14.97;;
4986;SDS011;12674;51.500;7.552;2022-11-20T03:09:43;23.23;;;16.50;;
4986;SDS011;12674;51.500;7.552;2022-11-20T03:11:46;25.80;;;17.00;;
4986;SDS011;12674;51.500;7.552;2022-11-20T03:13:51;22.30;;;15.70;;
4986;SDS011;12674;51.500;7.552;2022-11-20T03:15:54;24.67;;;16.73;;
4986;SDS011;12674;51.500;7.552;2022-11-20T03:17:56;22.80;;;16.33;;
4986;SDS011;12674;51.500;7.552;2022-11-20T03:19:59;22.63;;;15.60;;
4986;SDS011;12674;51.500;7.552;2022-11-20T03:22:02;21.93;;;14.70;;
4986;SDS011;12674;51.500;7.552;2022-11-20T03:24:05;20.20;;;15.23;;
4986;SDS011;12674;51.500;7.552;2022-11-20T03:26:09;21.37;;;15.53;;
4986;SDS011;12674;51.500;7.552;2022-11-20T03:28:13;23.60;;;16.20;;
4986;SDS011;12674;51.500;7.552;2022-11-20T03:30:18;19.30;;;14.87;;
4986;SDS011;12674;51.500;7.552;2022-11-20T03:32:21;22.30;;;15.10;;
4986;SDS011;12674;51.500;7.552;2022-11-20T03:34:24;22.40;;;15.90;;
4986;SDS011;12674;51.500;7.552;2022-11-20T03:36:27;19.40;;;14.13;;
4986;SDS011;12674;51.500;7.552;2022-11-20T03:38:32;23.13;;;14.93;;
4986;SDS011;12674;51.500;7.552;2022-11-20T03:40:35;21.43;;;15.60;;
4986;SDS011;12674;51.500;7.552;2022-11-20T03:42:38;20.37;;;15.30;;
4986;SDS011;12674;51.500;7.552;2022-11-20T03:44:49;21.23;;;14.27;;
4986;SDS011;12674;51.500;7.552;2022-11-20T03:46:54;20.07;;;14.13;;
4986;SDS011;12674;51.500;7.552;2022-11-20T03:48:57;18.37;;;14.37;;
4986;SDS011;12674;51.500;7.552;2022-11-20T03:51:06;20.87;;;14.27;;
4986;SDS011;12674;51.500;7.552;2022-11-20T03:53:10;19.47;;;14.07;;
4986;SDS011;12674;51.500;7.552;2022-11-20T03:55:12;22.67;;;13.90;;
4986;SDS011;12674;51.500;7.552;2022-11-20T03:57:15;17.20;;;12.63;;
4986;SDS011;12674;51.500;7.552;2022-11-20T03:59:18;15.90;;;12.70;;
4986;SDS011;12674;51.500;7.552;2022-11-20T04:01:22;19.27;;;14.40;;
4986;SDS011;12674;51.500;7.552;2022-11-20T04:03:28;18.10;;;14.00;;
4986;SDS011;12674;51.500;7.552;2022-11-20T04:05:32;22.77;;;15.27;;
4986;SDS011;12674;51.500;7.552;2022-11-20T04:07:35;16.77;;;14.03;;
4986;SDS011;12674;51.500;7.552;2022-11-20T04:09:38;22.13;;;15.07;;
4986;SDS011;12674;51.500;7.552;2022-11-20T04:11:41;19.30;;;13.63;;
4986;SDS011;12674;51.500;7.552;2022-11-20T04:13:46;20.20;;;14.50;;
4986;SDS011;12674;51.500;7.552;2022-11-20T04:15:50;22.70;;;13.17;;
4986;SDS011;12674;51.500;7.552;2022-11-20T04:17:54;19.93;;;14.37;;
4986;SDS011;12674;51.500;7.552;2022-11-20T04:19:58;18.93;;;12.83;;
4986;SDS011;12674;51.500;7.552;2022-11-20T04:22:01;20.67;;;14.50;;
4986;SDS011;12674;51.500;7.552;2022-11-20T04:24:04;16.70;;;12.67;;
4986;SDS011;12674;51.500;7.552;2022-11-20T04:26:08;17.07;;;13.10;;
4986;SDS011;12674;51.500;7.552;2022-11-20T04:28:11;18.30;;;13.40;;
4986;SDS011;12674;51.500;7.552;2022-11-20T04:30:14;17.57;;;13.60;;
4986;SDS011;12674;51.500;7.552;2022-11-20T04:32:17;18.60;;;13.63;;
4986;SDS011;12674;51.500;7.552;2022-11-20T04:34:20;17.20;;;13.33;;
4986;SDS011;12674;51.500;7.552;2022-11-20T04:36:25;16.73;;;12.97;;
4986;SDS011;12674;51.500;7.552;2022-11-20T04:38:29;16.80;;;12.73;;
4986;SDS011;12674;51.500;7.552;2022-11-20T04:40:32;19.97;;;12.93;;
4986;SDS011;12674;51.500;7.552;2022-11-20T04:42:34;17.30;;;13.63;;
4986;SDS011;12674;51.500;7.552;2022-11-20T04:44:37;17.13;;;12.67;;
4986;SDS011;12674;51.500;7.552;2022-11-20T04:46:41;17.97;;;13.20;;
4986;SDS011;12674;51.500;7.552;2022-11-20T04:48:44;17.27;;;12.97;;
4986;SDS011;12674;51.500;7.552;2022-11-20T04:50:47;18.60;;;13.63;;
4986;SDS011;12674;51.500;7.552;2022-11-20T04:52:51;17.60;;;13.13;;
4986;SDS011;12674;51.500;7.552;2022-11-20T04:54:54;17.10;;;12.87;;
4986;SDS011;12674;51.500;7.552;2022-11-20T04:56:57;15.93;;;12.50;;
4986;SDS011;12674;51.500;7.552;2022-11-20T04:59:00;17.17;;;13.10;;
4986;SDS011;12674;51.500;7.552;2022-11-20T05:01:05;16.90;;;13.73;;
4986;SDS011;12674;51.500;7.552;2022-11-20T05:03:08;16.20;;;12.23;;
4986;SDS011;12674;51.500;7.552;2022-11-20T05:05:11;17.10;;;11.87;;
4986;SDS011;12674;51.500;7.552;2022-11-20T05:07:14;17.20;;;11.90;;
4986;SDS011;12674;51.500;7.552;2022-11-20T05:09:19;13.10;;;11.67;;
4986;SDS011;12674;51.500;7.552;2022-11-20T05:11:22;17.50;;;12.30;;
4986;SDS011;12674;51.500;7.552;2022-11-20T05:13:25;16.90;;;12.90;;
4986;SDS011;12674;51.500;7.552;2022-11-20T05:15:29;17.90;;;12.10;;
4986;SDS011;12674;51.500;7.552;2022-11-20T05:17:32;14.13;;;11.70;;
4986;SDS011;12674;51.500;7.552;2022-11-20T05:19:34;14.50;;;11.23;;
4986;SDS011;12674;51.500;7.552;2022-11-20T05:21:37;18.00;;;12.50;;
4986;SDS011;12674;51.500;7.552;2022-11-20T05:23:40;18.50;;;12.80;;
4986;SDS011;12674;51.500;7.552;2022-11-20T05:25:45;18.63;;;12.53;;
4986;SDS011;12674;51.500;7.552;2022-11-20T05:27:48;16.90;;;12.90;;
4986;SDS011;12674;51.500;7.552;2022-11-20T05:29:51;15.10;;;12.30;;
4986;SDS011;12674;51.500;7.552;2022-11-20T05:31:54;16.13;;;12.07;;
4986;SDS011;12674;51.500;7.552;2022-11-20T05:33:57;15.20;;;11.13;;
4986;SDS011;12674;51.500;7.552;2022-11-20T05:36:00;15.60;;;11.93;;
4986;SDS011;12674;51.500;7.552;2022-11-20T05:38:03;16.67;;;12.00;;
4986;SDS011;12674;51.500;7.552;2022-11-20T05:40:06;18.67;;;12.97;;
4986;SDS011;12674;51.500;7.552;2022-11-20T05:42:12;16.70;;;12.70;;
4986;SDS011;12674;51.500;7.552;2022-11-20T05:44:32;14.47;;;12.20;;
4986;SDS011;12674;51.500;7.552;2022-11-20T05:46:36;18.40;;;13.30;;
4986;SDS011;12674;51.500;7.552;2022-11-20T05:48:40;20.73;;;11.10;;
4986;SDS011;12674;51.500;7.552;2022-11-20T05:50:43;15.27;;;12.50;;
4986;SDS011;12674;51.500;7.552;2022-11-20T05:52:46;14.63;;;11.90;;
4986;SDS011;12674;51.500;7.552;2022-11-20T05:54:49;16.13;;;11.47;;
4986;SDS011;12674;51.500;7.552;2022-11-20T05:56:52;19.30;;;11.93;;
4986;SDS011;12674;51.500;7.552;2022-11-20T05:58:57;14.10;;;10.47;;
4986;SDS011;12674;51.500;7.552;2022-11-20T06:01:03;16.07;;;12.43;;
4986;SDS011;12674;51.500;7.552;2022-11-20T06:03:07;16.60;;;12.23;;
4986;SDS011;12674;51.500;7.552;2022-11-20T06:05:10;15.50;;;12.00;;
4986;SDS011;12674;51.500;7.552;2022-11-20T06:07:13;16.47;;;12.47;;
4986;SDS011;12674;51.500;7.552;2022-11-20T06:09:16;19.10;;;13.13;;
4986;SDS011;12674;51.500;7.552;2022-11-20T06:11:19;18.33;;;11.80;;
4986;SDS011;12674;51.500;7.552;2022-11-20T06:13:22;16.67;;;12.77;;
4986;SDS011;12674;51.500;7.552;2022-11-20T06:15:27;19.77;;;13.20;;
4986;SDS011;12674;51.500;7.552;2022-11-20T06:17:29;17.93;;;12.93;;
4986;SDS011;12674;51.500;7.552;2022-11-20T06:19:32;17.07;;;12.30;;
4986;SDS011;12674;51.500;7.552;2022-11-20T06:21:35;17.07;;;12.70;;
4986;SDS011;12674;51.500;7.552;2022-11-20T06:23:39;16.97;;;11.93;;
4986;SDS011;12674;51.500;7.552;2022-11-20T06:25:42;15.60;;;11.77;;
4986;SDS011;12674;51.500;7.552;2022-11-20T06:27:45;20.03;;;12.67;;
4986;SDS011;12674;51.500;7.552;2022-11-20T06:29:48;15.70;;;11.73;;
4986;SDS011;12674;51.500;7.552;2022-11-20T06:31:52;17.50;;;12.03;;
4986;SDS011;12674;51.500;7.552;2022-11-20T06:33:55;15.73;;;12.70;;
4986;SDS011;12674;51.500;7.552;2022-11-20T06:35:58;19.73;;;11.70;;
4986;SDS011;12674;51.500;7.552;2022-11-20T06:38:07;16.10;;;12.00;;
4986;SDS011;12674;51.500;7.552;2022-11-20T06:40:10;17.13;;;12.10;;
4986;SDS011;12674;51.500;7.552;2022-11-20T06:42:14;16.70;;;11.43;;
4986;SDS011;12674;51.500;7.552;2022-11-20T06:44:17;16.17;;;12.13;;
4986;SDS011;12674;51.500;7.552;2022-11-20T06:46:20;16.67;;;12.80;;
4986;SDS011;12674;51.500;7.552;2022-11-20T06:48:25;17.63;;;11.80;;
4986;SDS011;12674;51.500;7.552;2022-11-20T06:50:28;17.70;;;11.97;;
4986;SDS011;12674;51.500;7.552;2022-11-20T06:52:31;14.87;;;11.77;;
4986;SDS011;12674;51.500;7.552;2022-11-20T06:54:42;18.30;;;12.20;;
4986;SDS011;12674;51.500;7.552;2022-11-20T06:56:46;19.17;;;12.40;;
4986;SDS011;12674;51.500;7.552;2022-11-20T06:58:49;16.60;;;12.20;;
4986;SDS011;12674;51.500;7.552;2022-11-20T07:00:52;17.27;;;12.30;;
4986;SDS011;12674;51.500;7.552;2022-11-20T07:02:56;14.53;;;11.13;;
4986;SDS011;12674;51.500;7.552;2022-11-20T07:05:00;16.80;;;11.70;;
4986;SDS011;12674;51.500;7.552;2022-11-20T07:07:03;17.33;;;11.93;;
4986;SDS011;12674;51.500;7.552;2022-11-20T07:09:06;15.47;;;11.10;;
4986;SDS011;12674;51.500;7.552;2022-11-20T07:11:13;14.00;;;10.43;;
4986;SDS011;12674;51.500;7.552;2022-11-20T07:13:16;16.90;;;12.20;;
4986;SDS011;12674;51.500;7.552;2022-11-20T07:15:19;20.23;;;12.47;;
4986;SDS011;12674;51.500;7.552;2022-11-20T07:17:23;16.53;;;11.70;;
4986;SDS011;12674;51.500;7.552;2022-11-20T07:19:26;16.27;;;13.47;;
4986;SDS011;12674;51.500;7.552;2022-11-20T07:21:30;20.10;;;12.60;;
4986;SDS011;12674;51.500;7.552;2022-11-20T07:23:33;15.97;;;12.57;;
4986;SDS011;12674;51.500;7.552;2022-11-20T07:25:36;19.03;;;13.60;;
4986;SDS011;12674;51.500;7.552;2022-11-20T07:27:39;23.30;;;14.40;;
4986;SDS011;12674;51.500;7.552;2022-11-20T07:29:42;22.57;;;14.93;;
4986;SDS011;12674;51.500;7.552;2022-11-20T07:31:45;21.60;;;14.87;;
4986;SDS011;12674;51.500;7.552;2022-11-20T07:33:48;24.13;;;14.87;;
4986;SDS011;12674;51.500;7.552;2022-11-20T07:35:51;22.30;;;14.00;;
4986;SDS011;12674;51.500;7.552;2022-11-20T07:37:55;18.13;;;12.00;;
4986;SDS011;12674;51.500;7.552;2022-11-20T07:39:58;22.40;;;14.27;;
4986;SDS011;12674;51.500;7.552;2022-11-20T07:42:01;18.37;;;13.10;;
4986;SDS011;12674;51.500;7.552;2022-11-20T07:44:04;18.00;;;13.17;;
4986;SDS011;12674;51.500;7.552;2022-11-20T07:46:07;18.43;;;13.10;;
4986;SDS011;12674;51.500;7.552;2022-11-20T07:48:10;18.67;;;12.37;;
4986;SDS011;12674;51.500;7.552;2022-11-20T07:50:13;17.80;;;12.00;;
4986;SDS011;12674;51.500;7.552;2022-11-20T07:52:16;17.17;;;12.30;;
4986;SDS011;12674;51.500;7.552;2022-11-20T07:54:21;19.83;;;12.50;;
4986;SDS011;12674;51.500;7.552;2022-11-20T07:56:24;16.20;;;12.40;;
4986;SDS011;12674;51.500;7.552;2022-11-20T07:58:28;16.43;;;11.17;;
4986;SDS011;12674;51.500;7.552;2022-11-20T08:00:31;15.73;;;11.80;;
4986;SDS011;12674;51.500;7.552;2022-11-20T08:02:36;21.40;;;12.10;;
4986;SDS011;12674;51.500;7.552;2022-11-20T08:04:39;15.80;;;11.90;;
4986;SDS011;12674;51.500;7.552;2022-11-20T08:06:42;15.07;;;11.17;;
4986;SDS011;12674;51.500;7.552;2022-11-20T08:08:46;15.33;;;11.20;;
4986;SDS011;12674;51.500;7.552;2022-11-20T08:10:51;14.87;;;11.33;;
4986;SDS011;12674;51.500;7.552;2022-11-20T08:13:14;14.93;;;11.47;;
4986;SDS011;12674;51.500;7.552;2022-11-20T08:15:36;17.73;;;12.70;;
4986;SDS011;12674;51.500;7.552;2022-11-20T08:17:40;16.00;;;11.40;;
4986;SDS011;12674;51.500;7.552;2022-11-20T08:20:03;16.30;;;11.30;;
4986;SDS011;12674;51.500;7.552;2022-11-20T08:22:07;15.60;;;12.10;;
4986;SDS011;12674;51.500;7.552;2022-11-20T08:24:10;14.40;;;11.03;;
4986;SDS011;12674;51.500;7.552;2022-11-20T08:26:14;14.13;;;11.10;;
4986;SDS011;12674;51.500;7.552;2022-11-20T08:28:18;14.70;;;11.10;;
4986;SDS011;12674;51.500;7.552;2022-11-20T08:30:22;16.20;;;12.00;;
4986;SDS011;12674;51.500;7.552;2022-11-20T08:32:26;12.27;;;10.30;;
4986;SDS011;12674;51.500;7.552;2022-11-20T08:34:28;14.33;;;11.67;;
4986;SDS011;12674;51.500;7.552;2022-11-20T08:36:32;15.07;;;11.67;;
4986;SDS011;12674;51.500;7.552;2022-11-20T08:38:36;17.53;;;13.27;;
4986;SDS011;12674;51.500;7.552;2022-11-20T08:40:39;17.90;;;12.23;;
4986;SDS011;12674;51.500;7.552;2022-11-20T08:42:49;15.07;;;11.50;;
4986;SDS011;12674;51.500;7.552;2022-11-20T08:44:52;21.07;;;11.83;;
4986;SDS011;12674;51.500;7.552;2022-11-20T08:46:55;17.60;;;11.93;;
4986;SDS011;12674;51.500;7.552;2022-11-20T08:48:59;16.30;;;11.53;;
4986;SDS011;12674;51.500;7.552;2022-11-20T08:51:02;14.70;;;11.90;;
4986;SDS011;12674;51.500;7.552;2022-11-20T08:53:05;17.80;;;12.80;;
4986;SDS011;12674;51.500;7.552;2022-11-20T08:55:08;22.17;;;11.83;;
4986;SDS011;12674;51.500;7.552;2022-11-20T08:57:11;15.70;;;11.80;;
4986;SDS011;12674;51.500;7.552;2022-11-20T08:59:16;19.97;;;12.00;;
4986;SDS011;12674;51.500;7.552;2022-11-20T09:01:39;15.23;;;11.93;;
4986;SDS011;12674;51.500;7.552;2022-11-20T09:03:41;14.90;;;11.10;;
4986;SDS011;12674;51.500;7.552;2022-11-20T09:05:45;13.33;;;10.00;;
4986;SDS011;12674;51.500;7.552;2022-11-20T09:07:48;13.30;;;10.70;;
4986;SDS011;12674;51.500;7.552;2022-11-20T09:09:51;14.60;;;11.97;;
4986;SDS011;12674;51.500;7.552;2022-11-20T09:12:14;16.57;;;11.17;;
4986;SDS011;12674;51.500;7.552;2022-11-20T09:14:18;14.80;;;11.23;;
4986;SDS011;12674;51.500;7.552;2022-11-20T09:16:21;14.90;;;11.40;;
4986;SDS011;12674;51.500;7.552;2022-11-20T09:18:24;14.53;;;10.70;;
4986;SDS011;12674;51.500;7.552;2022-11-20T09:20:28;14.73;;;10.57;;
4986;SDS011;12674;51.500;7.552;2022-11-20T09:22:32;17.87;;;11.10;;
4986;SDS011;12674;51.500;7.552;2022-11-20T09:24:35;16.03;;;11.50;;
4986;SDS011;12674;51.500;7.552;2022-11-20T09:26:38;18.90;;;12.30;;
4986;SDS011;12674;51.500;7.552;2022-11-20T09:28:41;11.77;;;9.17;;
4986;SDS011;12674;51.500;7.552;2022-11-20T09:30:45;15.10;;;10.40;;
4986;SDS011;12674;51.500;7.552;2022-11-20T09:32:48;14.70;;;10.57;;
4986;SDS011;12674;51.500;7.552;2022-11-20T09:34:52;13.20;;;9.43;;
4986;SDS011;12674;51.500;7.552;2022-11-20T09:36:54;17.13;;;10.80;;
4986;SDS011;12674;51.500;7.552;2022-11-20T09:39:00;15.43;;;9.97;;
4986;SDS011;12674;51.500;7.552;2022-11-20T09:41:04;10.63;;;8.10;;
4986;SDS011;12674;51.500;7.552;2022-11-20T09:43:09;12.43;;;8.20;;
4986;SDS011;12674;51.500;7.552;2022-11-20T09:45:16;11.53;;;9.27;;
4986;SDS011;12674;51.500;7.552;2022-11-20T09:47:28;12.70;;;9.23;;
4986;SDS011;12674;51.500;7.552;2022-11-20T09:49:37;12.43;;;9.40;;
4986;SDS011;12674;51.500;7.552;2022-11-20T09:51:49;13.47;;;9.33;;
4986;SDS011;12674;51.500;7.552;2022-11-20T09:54:01;12.80;;;9.80;;
4986;SDS011;12674;51.500;7.552;2022-11-20T09:56:12;12.53;;;9.30;;
4986;SDS011;12674;51.500;7.552;2022-11-20T09:58:25;12.03;;;9.00;;
4986;SDS011;12674;51.500;7.552;2022-11-20T10:00:34;15.17;;;10.67;;
4986;SDS011;12674;51.500;7.552;2022-11-20T10:02:40;13.73;;;9.63;;
4986;SDS011;12674;51.500;7.552;2022-11-20T10:04:48;19.90;;;10.23;;
4986;SDS011;12674;51.500;7.552;2022-11-20T10:06:56;14.90;;;9.60;;
4986;SDS011;12674;51.500;7.552;2022-11-20T10:09:24;14.83;;;10.10;;
4986;SDS011;12674;51.500;7.552;2022-11-20T10:11:33;14.47;;;9.63;;
4986;SDS011;12674;51.500;7.552;2022-11-20T10:13:44;15.13;;;9.87;;
4986;SDS011;12674;51.500;7.552;2022-11-20T10:15:54;12.53;;;9.67;;
4986;SDS011;12674;51.500;7.552;2022-11-20T10:18:06;15.90;;;10.23;;
4986;SDS011;12674;51.500;7.552;2022-11-20T10:20:17;15.47;;;11.07;;
4986;SDS011;12674;51.500;7.552;2022-11-20T10:22:29;15.97;;;10.53;;
4986;SDS011;12674;51.500;7.552;2022-11-20T10:24:41;17.33;;;10.03;;
4986;SDS011;12674;51.500;7.552;2022-11-20T10:26:48;15.00;;;10.73;;
4986;SDS011;12674;51.500;7.552;2022-11-20T10:29:01;15.20;;;10.70;;
4986;SDS011;12674;51.500;7.552;2022-11-20T10:31:12;20.07;;;11.40;;
4986;SDS011;12674;51.500;7.552;2022-11-20T10:33:19;14.30;;;10.10;;
4986;SDS011;12674;51.500;7.552;2022-11-20T10:35:25;14.57;;;10.30;;
4986;SDS011;12674;51.500;7.552;2022-11-20T10:37:30;17.00;;;10.30;;
4986;SDS011;12674;51.500;7.552;2022-11-20T10:39:35;14.83;;;10.57;;
4986;SDS011;12674;51.500;7.552;2022-11-20T10:41:40;15.40;;;11.00;;
4986;SDS011;12674;51.500;7.552;2022-11-20T10:43:44;14.67;;;10.87;;
4986;SDS011;12674;51.500;7.552;2022-11-20T10:45:49;16.30;;;11.80;;
4986;SDS011;12674;51.500;7.552;2022-11-20T10:48:00;13.53;;;11.00;;
4986;SDS011;12674;51.500;7.552;2022-11-20T10:50:14;14.10;;;10.20;;
4986;SDS011;12674;51.500;7.552;2022-11-20T10:52:25;18.37;;;11.07;;
4986;SDS011;12674;51.500;7.552;2022-11-20T10:54:36;17.23;;;11.77;;
4986;SDS011;12674;51.500;7.552;2022-11-20T10:56:45;14.10;;;10.93;;
4986;SDS011;12674;51.500;7.552;2022-11-20T10:58:54;14.27;;;10.70;;
4986;SDS011;12674;51.500;7.552;2022-11-20T11:01:11;15.70;;;11.53;;
4986;SDS011;12674;51.500;7.552;2022-11-20T11:03:20;20.20;;;10.87;;
4986;SDS011;12674;51.500;7.552;2022-11-20T11:05:30;11.73;;;9.93;;
4986;SDS011;12674;51.500;7.552;2022-11-20T11:07:36;14.03;;;11.50;;
4986;SDS011;12674;51.500;7.552;2022-11-20T11:09:42;23.03;;;9.70;;
4986;SDS011;12674;51.500;7.552;2022-11-20T11:11:47;12.37;;;9.57;;
4986;SDS011;12674;51.500;7.552;2022-11-20T11:13:50;10.73;;;7.80;;
4986;SDS011;12674;51.500;7.552;2022-11-20T11:15:53;9.80;;;7.40;;
4986;SDS011;12674;51.500;7.552;2022-11-20T11:17:56;8.03;;;5.90;;
4986;SDS011;12674;51.500;7.552;2022-11-20T11:20:00;11.43;;;7.40;;
4986;SDS011;12674;51.500;7.552;2022-11-20T11:22:10;8.73;;;7.40;;
4986;SDS011;12674;51.500;7.552;2022-11-20T11:24:20;13.60;;;6.20;;
4986;SDS011;12674;51.500;7.552;2022-11-20T11:26:50;9.43;;;6.87;;
4986;SDS011;12674;51.500;7.552;2022-11-20T11:29:02;9.40;;;6.30;;
4986;SDS011;12674;51.500;7.552;2022-11-20T11:31:06;9.10;;;7.30;;
4986;SDS011;12674;51.500;7.552;2022-11-20T11:33:09;7.63;;;6.80;;
4986;SDS011;12674;51.500;7.552;2022-11-20T11:35:20;9.70;;;7.90;;
4986;SDS011;12674;51.500;7.552;2022-11-20T11:37:27;7.13;;;6.43;;
4986;SDS011;12674;51.500;7.552;2022-11-20T11:39:36;8.03;;;6.63;;
4986;SDS011;12674;51.500;7.552;2022-11-20T11:41:43;9.87;;;7.73;;
4986;SDS011;12674;51.500;7.552;2022-11-20T11:43:50;9.83;;;7.53;;
4986;SDS011;12674;51.500;7.552;2022-11-20T11:46:24;13.23;;;8.37;;
4986;SDS011;12674;51.500;7.552;2022-11-20T11:48:29;11.10;;;8.10;;
4986;SDS011;12674;51.500;7.552;2022-11-20T11:50:32;10.13;;;7.53;;
4986;SDS011;12674;51.500;7.552;2022-11-20T11:52:38;10.30;;;8.67;;
4986;SDS011;12674;51.500;7.552;2022-11-20T11:54:46;9.97;;;8.30;;
4986;SDS011;12674;51.500;7.552;2022-11-20T11:56:52;10.07;;;8.57;;
4986;SDS011;12674;51.500;7.552;2022-11-20T11:58:56;11.67;;;7.73;;
4986;SDS011;12674;51.500;7.552;2022-11-20T12:01:03;10.93;;;7.83;;
4986;SDS011;12674;51.500;7.552;2022-11-20T12:03:12;9.23;;;7.37;;
4986;SDS011;12674;51.500;7.552;2022-11-20T12:05:18;11.33;;;9.07;;
4986;SDS011;12674;51.500;7.552;2022-11-20T12:07:25;9.17;;;7.90;;
4986;SDS011;12674;51.500;7.552;2022-11-20T12:09:48;10.00;;;7.50;;
4986;SDS011;12674;51.500;7.552;2022-11-20T12:11:55;11.63;;;7.87;;
4986;SDS011;12674;51.500;7.552;2022-11-20T12:14:02;8.50;;;7.43;;
4986;SDS011;12674;51.500;7.552;2022-11-20T12:16:13;12.60;;;8.23;;
4986;SDS011;12674;51.500;7.552;2022-11-20T12:18:17;9.53;;;7.83;;
4986;SDS011;12674;51.500;7.552;2022-11-20T12:20:21;11.60;;;8.10;;
4986;SDS011;12674;51.500;7.552;2022-11-20T12:22:29;11.23;;;8.80;;
4986;SDS011;12674;51.500;7.552;2022-11-20T12:24:40;9.20;;;7.50;;
4986;SDS011;12674;51.500;7.552;2022-11-20T12:26:56;10.07;;;7.40;;